Time;durP1;ratioP1;P1;durP2;ratioP2;P2;SDS_P1;SDS_P2;PMS_P1;PMS_P2;Temp;Humidity;BMP_temperature;BMP_pressure;BME280_temperature;BME280_humidity;BME280_pressure;Samples;Min_cycle;Max_cycle;Signal;HPM_P1;HPM_P2
2023/12/02 00:01:37;;;;;;;11.23;5.72;;;;;;;-148.88;100.00;-17125.47;5073407;28;20028;-82
2023/12/02 00:04:03;;;;;;;18.63;6.80;;;;;;;-148.88;100.00;-17125.47;5073966;28;20032;-82
2023/12/02 00:06:28;;;;;;;16.92;6.63;;;;;;;-148.88;100.00;-17125.47;5073826;28;20017;-82
2023/12/02 00:08:53;;;;;;;12.55;4.63;;;;;;;-148.88;100.00;-17125.47;5073795;28;20024;-82
2023/12/02 00:11:19;;;;;;;11.60;5.13;;;;;;;-148.88;100.00;-17125.47;5073971;28;20459;-82
2023/12/02 00:13:44;;;;;;;13.13;5.88;;;;;;;-148.88;100.00;-17125.47;5072803;28;20498;-82
2023/12/02 00:16:10;;;;;;;16.83;5.70;;;;;;;-148.88;100.00;-17125.47;5074000;28;20483;-82
2023/12/02 00:18:35;;;;;;;10.90;4.80;;;;;;;-148.88;100.00;-17125.47;5074221;28;20041;-81
2023/12/02 00:21:00;;;;;;;11.82;5.28;;;;;;;-148.88;100.00;-17125.47;5073847;28;20021;-82
2023/12/02 00:23:26;;;;;;;14.23;4.78;;;;;;;-148.88;100.00;-17125.47;5073236;28;20376;-82
2023/12/02 00:25:51;;;;;;;18.60;5.95;;;;;;;-148.88;100.00;-17125.47;5074637;28;20024;-82
2023/12/02 00:28:16;;;;;;;13.20;5.10;;;;;;;-148.88;100.00;-17125.47;5074910;28;20048;-82
2023/12/02 00:30:42;;;;;;;14.27;5.38;;;;;;;-148.88;100.00;-17125.47;5072877;28;20162;-82
2023/12/02 00:33:08;;;;;;;14.52;5.65;;;;;;;-148.88;100.00;-17125.47;5074118;28;20028;-82
2023/12/02 00:35:33;;;;;;;14.25;6.05;;;;;;;-148.88;100.00;-17125.47;5082106;28;20029;-82
2023/12/02 00:37:58;;;;;;;17.00;6.95;;;;;;;-148.88;100.00;-17125.47;5084598;28;20036;-83
2023/12/02 00:40:24;;;;;;;18.10;7.00;;;;;;;-148.88;100.00;-17125.47;5084674;28;20082;-82
2023/12/02 00:42:50;;;;;;;16.58;6.05;;;;;;;-148.88;100.00;-17125.47;5083925;28;20051;-84
2023/12/02 00:45:15;;;;;;;16.27;5.80;;;;;;;-148.88;100.00;-17125.47;5079892;28;20075;-84
2023/12/02 00:47:41;;;;;;;12.25;4.80;;;;;;;-148.88;100.00;-17125.47;5082697;28;20479;-82
2023/12/02 00:50:07;;;;;;;14.73;5.10;;;;;;;-148.88;100.00;-17125.47;5083172;28;20401;-83
2023/12/02 00:52:32;;;;;;;13.27;5.47;;;;;;;-148.88;100.00;-17125.47;5082834;28;20100;-83
2023/12/02 00:54:58;;;;;;;16.00;5.55;;;;;;;-148.88;100.00;-17125.47;5083352;28;20077;-84
2023/12/02 00:57:23;;;;;;;14.57;6.10;;;;;;;-148.88;100.00;-17125.47;5083503;28;20044;-83
2023/12/02 00:59:48;;;;;;;13.65;6.25;;;;;;;-148.88;100.00;-17125.47;5083279;28;20027;-84
2023/12/02 01:02:14;;;;;;;14.73;5.43;;;;;;;-148.88;100.00;-17125.47;5079766;28;20430;-84
2023/12/02 01:04:39;;;;;;;16.02;5.88;;;;;;;-148.88;100.00;-17125.47;5072142;28;20028;-82
2023/12/02 01:07:04;;;;;;;15.32;6.18;;;;;;;-148.88;100.00;-17125.47;5076723;28;20016;-83
2023/12/02 01:09:30;;;;;;;17.88;6.18;;;;;;;-148.88;100.00;-17125.47;5077800;28;20044;-84
2023/12/02 01:11:55;;;;;;;16.52;5.82;;;;;;;-148.88;100.00;-17125.47;5079832;28;20025;-84
2023/12/02 01:14:20;;;;;;;19.20;5.93;;;;;;;-148.88;100.00;-17125.47;5083156;28;20044;-83
2023/12/02 01:16:46;;;;;;;14.45;5.82;;;;;;;-148.88;100.00;-17125.47;5081117;28;20111;-83
2023/12/02 01:19:11;;;;;;;15.38;5.68;;;;;;;-148.88;100.00;-17125.47;5082645;28;20028;-82
2023/12/02 01:21:36;;;;;;;13.80;6.43;;;;;;;-148.88;100.00;-17125.47;5081571;28;20029;-83
2023/12/02 01:24:02;;;;;;;12.73;4.88;;;;;;;-148.88;100.00;-17125.47;5082908;28;20079;-84
2023/12/02 01:26:27;;;;;;;14.05;5.45;;;;;;;-148.88;100.00;-17125.47;5082218;28;20380;-83
2023/12/02 01:28:52;;;;;;;16.08;5.07;;;;;;;-148.88;100.00;-17125.47;5082639;28;20024;-83
2023/12/02 01:31:18;;;;;;;13.15;4.88;;;;;;;-148.88;100.00;-17125.47;5082709;28;20028;-83
2023/12/02 01:33:43;;;;;;;13.77;4.75;;;;;;;-148.88;100.00;-17125.47;5083152;28;20020;-83
2023/12/02 01:36:11;;;;;;;14.13;5.13;;;;;;;-148.88;100.00;-17125.47;5081653;28;20115;-83
2023/12/02 01:38:36;;;;;;;17.70;5.68;;;;;;;-148.88;100.00;-17125.47;5075806;28;20028;-81
2023/12/02 01:41:04;;;;;;;11.00;4.55;;;;;;;-148.88;100.00;-17125.47;5076342;28;20070;-82
2023/12/02 01:43:29;;;;;;;13.60;4.75;;;;;;;-148.88;100.00;-17125.47;5077348;28;20032;-83
2023/12/02 01:45:56;;;;;;;11.90;5.05;;;;;;;-148.88;100.00;-17125.47;5082072;28;20029;-83
2023/12/02 01:48:23;;;;;;;11.23;4.85;;;;;;;-148.88;100.00;-17125.47;5082409;28;20376;-83
2023/12/02 01:50:49;;;;;;;9.95;4.40;;;;;;;-148.88;100.00;-17125.47;5081634;28;20044;-83
2023/12/02 01:53:15;;;;;;;12.38;5.03;;;;;;;-148.88;100.00;-17125.47;5081399;28;20375;-82
2023/12/02 01:55:40;;;;;;;12.73;5.20;;;;;;;-148.88;100.00;-17125.47;5082046;28;20597;-83
2023/12/02 01:58:06;;;;;;;9.45;4.13;;;;;;;-148.88;100.00;-17125.47;5079047;28;20418;-82
2023/12/02 02:00:31;;;;;;;12.30;4.93;;;;;;;-148.88;100.00;-17125.47;5081303;28;20024;-83
2023/12/02 02:02:56;;;;;;;12.00;4.32;;;;;;;-148.88;100.00;-17125.47;5080992;28;20025;-82
2023/12/02 02:05:22;;;;;;;14.02;5.53;;;;;;;-148.88;100.00;-17125.47;5080707;28;20443;-83
2023/12/02 02:07:47;;;;;;;13.15;4.53;;;;;;;-148.88;100.00;-17125.47;5080636;28;20082;-83
2023/12/02 02:10:13;;;;;;;12.70;5.28;;;;;;;-148.88;100.00;-17125.47;5082194;28;20039;-83
2023/12/02 02:12:38;;;;;;;18.45;6.82;;;;;;;-148.88;100.00;-17125.47;5077243;28;20025;-82
2023/12/02 02:15:04;;;;;;;17.05;6.45;;;;;;;-148.88;100.00;-17125.47;5074892;28;20020;-82
2023/12/02 02:17:29;;;;;;;15.00;6.10;;;;;;;-148.88;100.00;-17125.47;5074208;28;20020;-82
2023/12/02 02:19:55;;;;;;;16.15;5.82;;;;;;;-148.88;100.00;-17125.47;5076215;28;20021;-82
2023/12/02 02:22:20;;;;;;;15.20;6.15;;;;;;;-148.88;100.00;-17125.47;5075973;28;20044;-82
2023/12/02 02:24:45;;;;;;;16.05;5.47;;;;;;;-148.88;100.00;-17125.47;5078336;28;20479;-83
2023/12/02 02:27:11;;;;;;;14.60;5.45;;;;;;;-148.88;100.00;-17125.47;5079581;28;20027;-82
2023/12/02 02:29:36;;;;;;;18.30;6.68;;;;;;;-148.88;100.00;-17125.47;5079619;28;20479;-82
2023/12/02 02:32:01;;;;;;;11.85;4.95;;;;;;;-148.88;100.00;-17125.47;5079347;28;20086;-82
2023/12/02 02:34:27;;;;;;;18.70;5.72;;;;;;;-148.88;100.00;-17125.47;5080065;28;20024;-83
2023/12/02 02:36:53;;;;;;;15.52;5.70;;;;;;;-148.88;100.00;-17125.47;5079919;28;20044;-84
2023/12/02 02:39:18;;;;;;;14.30;5.80;;;;;;;-148.88;100.00;-17125.47;5079226;28;20483;-83
2023/12/02 02:41:44;;;;;;;21.45;7.65;;;;;;;-148.88;100.00;-17125.47;5078866;28;20036;-84
2023/12/02 02:44:09;;;;;;;13.23;5.65;;;;;;;-148.88;100.00;-17125.47;5080277;28;20475;-82
2023/12/02 02:46:35;;;;;;;15.95;5.95;;;;;;;-148.88;100.00;-17125.47;5076595;28;20012;-82
2023/12/02 02:49:00;;;;;;;17.13;6.82;;;;;;;-148.88;100.00;-17125.47;5075179;28;20024;-82
2023/12/02 02:51:25;;;;;;;15.52;5.78;;;;;;;-148.88;100.00;-17125.47;5075157;28;20078;-82
2023/12/02 02:53:51;;;;;;;17.90;6.13;;;;;;;-148.88;100.00;-17125.47;5075120;28;20024;-82
2023/12/02 02:56:19;;;;;;;14.32;5.70;;;;;;;-148.88;100.00;-17125.47;5075038;28;20470;-82
2023/12/02 02:58:45;;;;;;;13.40;5.80;;;;;;;-148.88;100.00;-17125.47;5074203;28;20379;-83
2023/12/02 03:01:11;;;;;;;20.23;6.72;;;;;;;-148.88;100.00;-17125.47;5077287;28;20069;-83
2023/12/02 03:03:36;;;;;;;15.52;6.03;;;;;;;-148.88;100.00;-17125.47;5079322;28;20040;-82
2023/12/02 03:06:01;;;;;;;16.20;5.90;;;;;;;-148.88;100.00;-17125.47;5077103;28;20070;-82
2023/12/02 03:08:27;;;;;;;16.42;6.00;;;;;;;-148.88;100.00;-17125.47;5077472;28;20039;-83
2023/12/02 03:10:53;;;;;;;15.32;6.80;;;;;;;-148.88;100.00;-17125.47;5078686;28;20021;-83
2023/12/02 03:13:18;;;;;;;17.25;6.57;;;;;;;-148.88;100.00;-17125.47;5078340;28;20017;-83
2023/12/02 03:15:43;;;;;;;15.90;6.07;;;;;;;-148.88;100.00;-17125.47;5079066;28;20107;-82
2023/12/02 03:18:09;;;;;;;17.30;6.18;;;;;;;-148.88;100.00;-17125.47;5077595;28;20515;-83
2023/12/02 03:20:34;;;;;;;17.88;6.60;;;;;;;-148.88;100.00;-17125.47;5076230;28;20487;-83
2023/12/02 03:22:59;;;;;;;16.02;5.97;;;;;;;-148.88;100.00;-17125.47;5074204;28;20107;-81
2023/12/02 03:25:25;;;;;;;15.20;6.55;;;;;;;-148.88;100.00;-17125.47;5074190;28;20109;-82
2023/12/02 03:27:51;;;;;;;20.20;6.97;;;;;;;-148.88;100.00;-17125.47;5074087;28;20024;-82
2023/12/02 03:30:16;;;;;;;20.88;7.80;;;;;;;-148.88;100.00;-17125.47;5074418;28;20104;-82
2023/12/02 03:32:43;;;;;;;19.48;5.65;;;;;;;-148.88;100.00;-17125.47;5073109;28;20119;-82
2023/12/02 03:35:08;;;;;;;14.50;6.13;;;;;;;-148.88;100.00;-17125.47;5074120;28;20078;-81
2023/12/02 03:37:36;;;;;;;19.33;6.22;;;;;;;-148.88;100.00;-17125.47;5078452;28;20032;-83
2023/12/02 03:40:02;;;;;;;19.02;6.40;;;;;;;-148.88;100.00;-17125.47;5079633;28;20401;-81
2023/12/02 03:42:27;;;;;;;16.92;5.97;;;;;;;-148.88;100.00;-17125.47;5079362;28;20024;-82
2023/12/02 03:44:52;;;;;;;16.00;6.00;;;;;;;-148.88;100.00;-17125.47;5080115;28;20044;-82
2023/12/02 03:47:18;;;;;;;17.23;5.93;;;;;;;-148.88;100.00;-17125.47;5080081;28;20017;-82
2023/12/02 03:49:43;;;;;;;14.93;5.22;;;;;;;-148.88;100.00;-17125.47;5079911;28;20024;-82
2023/12/02 03:52:09;;;;;;;17.88;6.40;;;;;;;-148.88;100.00;-17125.47;5080129;28;20099;-81
2023/12/02 03:54:34;;;;;;;16.85;6.25;;;;;;;-148.88;100.00;-17125.47;5075007;28;20089;-82
2023/12/02 03:57:00;;;;;;;22.27;7.13;;;;;;;-148.88;100.00;-17125.47;5072562;28;20031;-81
2023/12/02 03:59:25;;;;;;;18.90;7.28;;;;;;;-148.88;100.00;-17125.47;5073771;28;20025;-81
2023/12/02 04:01:51;;;;;;;20.48;7.38;;;;;;;-148.88;100.00;-17125.47;5072500;28;20024;-81
2023/12/02 04:04:18;;;;;;;20.40;7.55;;;;;;;-148.88;100.00;-17125.47;5074255;28;20082;-81
2023/12/02 04:06:44;;;;;;;21.13;7.97;;;;;;;-148.88;100.00;-17125.47;5074175;28;20025;-81
2023/12/02 04:09:10;;;;;;;20.75;7.55;;;;;;;-148.88;100.00;-17125.47;5072712;28;20103;-81
2023/12/02 04:11:35;;;;;;;28.60;8.05;;;;;;;-148.88;100.00;-17125.47;5075316;28;20087;-82
2023/12/02 04:14:01;;;;;;;21.35;7.85;;;;;;;-148.88;100.00;-17125.47;5074536;28;20502;-81
2023/12/02 04:16:27;;;;;;;21.20;7.07;;;;;;;-148.88;100.00;-17125.47;5076637;28;20162;-82
2023/12/02 04:18:52;;;;;;;24.58;7.32;;;;;;;-148.88;100.00;-17125.47;5076249;28;20478;-81
2023/12/02 04:21:17;;;;;;;21.50;7.10;;;;;;;-148.88;100.00;-17125.47;5077612;28;20035;-82
2023/12/02 04:23:43;;;;;;;20.38;7.60;;;;;;;-148.88;100.00;-17125.47;5077373;28;20021;-82
2023/12/02 04:26:08;;;;;;;19.40;7.18;;;;;;;-148.88;100.00;-17125.47;5076968;28;20028;-81
2023/12/02 04:28:34;;;;;;;24.85;7.97;;;;;;;-148.88;100.00;-17125.47;5076136;28;20032;-81
2023/12/02 04:30:59;;;;;;;20.52;6.63;;;;;;;-148.88;100.00;-17125.47;5073696;28;20025;-81
2023/12/02 04:33:25;;;;;;;21.83;8.13;;;;;;;-148.88;100.00;-17125.47;5073752;28;20180;-80
2023/12/02 04:35:50;;;;;;;21.05;7.18;;;;;;;-148.88;100.00;-17125.47;5073695;28;20031;-81
2023/12/02 04:38:16;;;;;;;23.45;6.93;;;;;;;-148.88;100.00;-17125.47;5072065;28;20116;-81
2023/12/02 04:40:41;;;;;;;22.15;7.28;;;;;;;-148.88;100.00;-17125.47;5073821;28;20100;-81
2023/12/02 04:43:07;;;;;;;20.80;7.50;;;;;;;-148.88;100.00;-17125.47;5072233;28;20438;-82
2023/12/02 04:45:32;;;;;;;20.90;7.97;;;;;;;-148.88;100.00;-17125.47;5072639;28;20032;-82
2023/12/02 04:47:58;;;;;;;21.88;7.60;;;;;;;-148.88;100.00;-17125.47;5076642;28;20482;-82
2023/12/02 04:50:24;;;;;;;20.65;6.97;;;;;;;-148.88;100.00;-17125.47;5077426;28;20129;-82
2023/12/02 04:52:49;;;;;;;21.23;7.70;;;;;;;-148.88;100.00;-17125.47;5077868;28;20077;-82
2023/12/02 04:55:14;;;;;;;21.60;6.72;;;;;;;-148.88;100.00;-17125.47;5078026;28;20024;-81
2023/12/02 04:57:40;;;;;;;19.90;6.20;;;;;;;-148.88;100.00;-17125.47;5078612;28;20079;-81
2023/12/02 05:00:13;;;;;;;20.73;7.28;;;;;;;-148.88;100.00;-17125.47;5080276;28;20344;-81
2023/12/02 05:02:43;;;;;;;19.30;7.38;;;;;;;-148.88;100.00;-17125.47;5078637;28;20437;-81
2023/12/02 05:05:09;;;;;;;19.00;6.35;;;;;;;-148.88;100.00;-17125.47;5077611;28;20103;-81
2023/12/02 05:07:35;;;;;;;18.63;7.40;;;;;;;-148.88;100.00;-17125.47;5076195;28;20032;-82
2023/12/02 05:10:00;;;;;;;21.90;8.48;;;;;;;-148.88;100.00;-17125.47;5077863;28;20078;-80
2023/12/02 05:12:26;;;;;;;20.02;7.10;;;;;;;-148.88;100.00;-17125.47;5077608;28;20028;-82
2023/12/02 05:14:51;;;;;;;19.20;6.50;;;;;;;-148.88;100.00;-17125.47;5077326;28;20467;-81
2023/12/02 05:17:17;;;;;;;18.30;6.97;;;;;;;-148.88;100.00;-17125.47;5077654;28;20394;-82
2023/12/02 05:19:42;;;;;;;16.90;7.00;;;;;;;-148.88;100.00;-17125.47;5077826;28;20048;-82
2023/12/02 05:22:08;;;;;;;22.08;7.07;;;;;;;-148.88;100.00;-17125.47;5077641;28;20093;-82
2023/12/02 05:24:33;;;;;;;21.40;7.82;;;;;;;-148.88;100.00;-17125.47;5077344;28;20032;-81
2023/12/02 05:26:58;;;;;;;18.52;7.03;;;;;;;-148.88;100.00;-17125.47;5077614;28;20088;-82
2023/12/02 05:29:24;;;;;;;23.45;7.75;;;;;;;-148.88;100.00;-17125.47;5077748;28;20432;-84
2023/12/02 05:31:49;;;;;;;16.60;6.20;;;;;;;-148.88;100.00;-17125.47;5077505;28;20055;-84
2023/12/02 05:34:15;;;;;;;19.52;7.18;;;;;;;-148.88;100.00;-17125.47;5076517;28;20478;-83
2023/12/02 05:36:40;;;;;;;20.58;6.57;;;;;;;-148.88;100.00;-17125.47;5078622;28;20032;-83
2023/12/02 05:39:05;;;;;;;18.83;6.80;;;;;;;-148.88;100.00;-17125.47;5078809;28;20024;-82
2023/12/02 05:41:31;;;;;;;19.95;6.97;;;;;;;-148.88;100.00;-17125.47;5078197;28;20024;-83
2023/12/02 05:43:56;;;;;;;21.98;7.50;;;;;;;-148.88;100.00;-17125.47;5077548;28;20048;-83
2023/12/02 05:46:22;;;;;;;22.35;6.85;;;;;;;-148.88;100.00;-17125.47;5075598;28;20410;-82
2023/12/02 05:48:47;;;;;;;18.85;6.82;;;;;;;-148.88;100.00;-17125.47;5075641;28;20028;-84
2023/12/02 05:51:13;;;;;;;19.17;6.40;;;;;;;-148.88;100.00;-17125.47;5076774;28;20446;-84
2023/12/02 05:53:39;;;;;;;17.45;7.13;;;;;;;-148.88;100.00;-17125.47;5075781;28;20074;-82
2023/12/02 05:56:06;;;;;;;19.38;7.18;;;;;;;-148.88;100.00;-17125.47;5077084;28;20021;-83
2023/12/02 05:58:32;;;;;;;17.33;6.45;;;;;;;-148.88;100.00;-17125.47;5076603;28;20047;-83
2023/12/02 06:00:57;;;;;;;22.15;6.75;;;;;;;-148.88;100.00;-17125.47;5076031;28;20036;-84
2023/12/02 06:03:22;;;;;;;16.35;5.25;;;;;;;-148.88;100.00;-17125.47;5075689;28;20131;-84
2023/12/02 06:05:48;;;;;;;22.00;6.85;;;;;;;-148.88;100.00;-17125.47;5077233;28;20020;-86
2023/12/02 06:08:14;;;;;;;19.27;6.50;;;;;;;-148.88;100.00;-17125.47;5076230;28;20051;-85
2023/12/02 06:10:39;;;;;;;20.20;6.65;;;;;;;-148.88;100.00;-17125.47;5076484;28;20029;-86
2023/12/02 06:13:05;;;;;;;19.27;6.15;;;;;;;-148.88;100.00;-17125.47;5075658;28;20024;-87
2023/12/02 06:15:30;;;;;;;19.27;6.93;;;;;;;-148.88;100.00;-17125.47;5075807;28;20024;-87
2023/12/02 06:17:57;;;;;;;18.85;6.60;;;;;;;-148.88;100.00;-17125.47;5075560;28;20029;-87
2023/12/02 06:20:26;;;;;;;17.70;6.75;;;;;;;-148.88;100.00;-17125.47;5076586;28;20032;-85
2023/12/02 06:22:52;;;;;;;23.20;6.57;;;;;;;-148.88;100.00;-17125.47;5076455;28;20501;-83
2023/12/02 06:25:18;;;;;;;24.52;7.70;;;;;;;-148.88;100.00;-17125.47;5076090;28;20102;-84
2023/12/02 06:27:43;;;;;;;16.83;5.82;;;;;;;-148.88;100.00;-17125.47;5076246;28;20025;-84
2023/12/02 06:30:09;;;;;;;15.50;6.10;;;;;;;-148.88;100.00;-17125.47;5076765;28;20035;-84
2023/12/02 06:32:35;;;;;;;24.13;6.40;;;;;;;-148.88;100.00;-17125.47;5074839;28;20046;-83
2023/12/02 06:35:00;;;;;;;17.42;6.32;;;;;;;-148.88;100.00;-17125.47;5075548;28;20060;-85
2023/12/02 06:37:25;;;;;;;19.23;5.53;;;;;;;-148.88;100.00;-17125.47;5075950;28;20103;-84
2023/12/02 06:39:51;;;;;;;18.08;6.20;;;;;;;-148.88;100.00;-17125.47;5074975;28;20064;-84
2023/12/02 06:42:16;;;;;;;20.15;6.13;;;;;;;-148.88;100.00;-17125.47;5076696;28;20125;-84
2023/12/02 06:44:42;;;;;;;18.35;6.15;;;;;;;-148.88;100.00;-17125.47;5075924;28;20058;-84
2023/12/02 06:47:08;;;;;;;21.13;8.05;;;;;;;-148.88;100.00;-17125.47;5075588;28;20502;-84
2023/12/02 06:49:33;;;;;;;16.95;7.25;;;;;;;-148.88;100.00;-17125.47;5075882;28;20122;-85
2023/12/02 06:51:59;;;;;;;19.70;6.38;;;;;;;-148.88;100.00;-17125.47;5075583;28;20400;-85
2023/12/02 06:54:24;;;;;;;14.75;6.07;;;;;;;-148.88;100.00;-17125.47;5076347;28;20020;-84
2023/12/02 06:56:50;;;;;;;19.83;6.53;;;;;;;-148.88;100.00;-17125.47;5076052;28;20036;-84
2023/12/02 06:59:15;;;;;;;23.15;9.00;;;;;;;-148.88;100.00;-17125.47;5076398;28;20024;-84
2023/12/02 07:01:41;;;;;;;18.05;6.75;;;;;;;-148.88;100.00;-17125.47;5074691;28;20060;-84
2023/12/02 07:04:06;;;;;;;18.45;6.70;;;;;;;-148.88;100.00;-17125.47;5076562;28;20108;-84
2023/12/02 07:06:32;;;;;;;15.48;6.15;;;;;;;-148.88;100.00;-17125.47;5076015;28;20044;-85
2023/12/02 07:08:58;;;;;;;22.02;7.30;;;;;;;-148.88;100.00;-17125.47;5074523;28;20491;-84
2023/12/02 07:11:23;;;;;;;21.40;7.43;;;;;;;-148.88;100.00;-17125.47;5075373;28;20031;-83
2023/12/02 07:13:49;;;;;;;19.90;6.97;;;;;;;-148.88;100.00;-17125.47;5074863;28;20024;-84
2023/12/02 07:16:18;;;;;;;21.27;8.45;;;;;;;-148.88;100.00;-17125.47;5074269;28;20410;-84
2023/12/02 07:18:43;;;;;;;20.20;6.95;;;;;;;-148.88;100.00;-17125.47;5075239;28;20070;-83
2023/12/02 07:21:09;;;;;;;19.48;7.38;;;;;;;-148.88;100.00;-17125.47;5074494;28;20020;-83
2023/12/02 07:23:35;;;;;;;17.63;6.40;;;;;;;-148.88;100.00;-17125.47;5075859;28;20024;-82
2023/12/02 07:26:00;;;;;;;19.90;8.20;;;;;;;-148.88;100.00;-17125.47;5076612;28;20376;-82
2023/12/02 07:28:26;;;;;;;15.68;6.22;;;;;;;-148.88;100.00;-17125.47;5075303;28;20023;-86
2023/12/02 07:30:51;;;;;;;19.55;7.40;;;;;;;-148.88;100.00;-17125.47;5073828;28;20025;-85
2023/12/02 07:33:20;;;;;;;18.45;5.90;;;;;;;-148.88;100.00;-17125.47;5074765;28;20024;-83
2023/12/02 07:35:46;;;;;;;22.27;7.15;;;;;;;-148.88;100.00;-17125.47;5075646;28;20077;-84
2023/12/02 07:38:11;;;;;;;17.42;6.55;;;;;;;-148.88;100.00;-17125.47;5074631;28;20037;-82
2023/12/02 07:40:37;;;;;;;23.08;7.22;;;;;;;-148.88;100.00;-17125.47;5074625;28;20029;-82
2023/12/02 07:43:02;;;;;;;17.90;5.88;;;;;;;-148.88;100.00;-17125.47;5074667;28;20494;-82
2023/12/02 07:45:28;;;;;;;14.23;5.97;;;;;;;-148.88;100.00;-17125.47;5074460;28;20024;-82
2023/12/02 07:47:53;;;;;;;25.10;10.18;;;;;;;-148.88;100.00;-17125.47;5074887;28;20094;-83
2023/12/02 07:50:19;;;;;;;19.23;7.80;;;;;;;-148.88;100.00;-17125.47;5074395;28;20066;-83
2023/12/02 07:52:44;;;;;;;23.30;8.20;;;;;;;-148.88;100.00;-17125.47;5074388;28;20029;-83
2023/12/02 07:55:10;;;;;;;29.95;8.48;;;;;;;-148.88;100.00;-17125.47;5074889;28;20479;-83
2023/12/02 07:57:36;;;;;;;23.33;7.80;;;;;;;-148.88;100.00;-17125.47;5075208;28;20054;-84
2023/12/02 08:00:02;;;;;;;23.90;8.48;;;;;;;-148.88;100.00;-17125.47;5074405;28;20025;-82
2023/12/02 08:02:27;;;;;;;20.65;7.20;;;;;;;-148.88;100.00;-17125.47;5075116;28;20063;-82
2023/12/02 08:04:53;;;;;;;22.77;8.80;;;;;;;-148.88;100.00;-17125.47;5074822;28;20074;-84
2023/12/02 08:07:18;;;;;;;21.60;7.95;;;;;;;-148.88;100.00;-17125.47;5073849;28;20083;-84
2023/12/02 08:09:44;;;;;;;20.75;7.00;;;;;;;-148.88;100.00;-17125.47;5075299;28;20028;-83
2023/12/02 08:12:10;;;;;;;26.30;7.50;;;;;;;-148.88;100.00;-17125.47;5075247;28;20475;-84
2023/12/02 08:14:36;;;;;;;28.23;9.35;;;;;;;-148.88;100.00;-17125.47;5075087;28;20027;-83
2023/12/02 08:17:02;;;;;;;23.15;8.02;;;;;;;-148.88;100.00;-17125.47;5073848;28;20024;-82
2023/12/02 08:19:28;;;;;;;27.02;8.25;;;;;;;-148.88;100.00;-17125.47;5074273;28;20020;-82
2023/12/02 08:21:53;;;;;;;18.63;7.80;;;;;;;-148.88;100.00;-17125.47;5073711;28;20024;-82
2023/12/02 08:24:18;;;;;;;21.83;8.02;;;;;;;-148.88;100.00;-17125.47;5074306;28;20083;-81
2023/12/02 08:26:44;;;;;;;22.75;8.10;;;;;;;-148.88;100.00;-17125.47;5074839;28;20042;-83
2023/12/02 08:29:09;;;;;;;24.20;7.93;;;;;;;-148.88;100.00;-17125.47;5073618;28;20024;-83
2023/12/02 08:31:34;;;;;;;24.17;9.38;;;;;;;-148.88;100.00;-17125.47;5075887;28;20027;-85
2023/12/02 08:34:00;;;;;;;19.85;7.72;;;;;;;-148.88;100.00;-17125.47;5073224;28;20467;-86
2023/12/02 08:36:37;;;;;;;23.98;7.97;;;;;;;-148.88;100.00;-17125.47;5073018;28;20158;-84
2023/12/02 08:39:04;;;;;;;23.90;7.80;;;;;;;-148.88;100.00;-17125.47;5072904;28;20085;-85
2023/12/02 08:41:30;;;;;;;21.15;7.97;;;;;;;-148.88;100.00;-17125.47;5073282;28;20047;-83
2023/12/02 08:43:56;;;;;;;30.60;10.13;;;;;;;-148.88;100.00;-17125.47;5073310;28;20031;-83
2023/12/02 08:46:21;;;;;;;23.25;8.13;;;;;;;-148.88;100.00;-17125.47;5074405;28;20024;-84
2023/12/02 08:48:46;;;;;;;23.08;7.90;;;;;;;-148.88;100.00;-17125.47;5073901;28;20048;-89
2023/12/02 08:51:12;;;;;;;26.08;8.18;;;;;;;-148.88;100.00;-17125.47;5072522;28;20028;-86
2023/12/02 08:53:38;;;;;;;23.77;8.68;;;;;;;-148.88;100.00;-17125.47;5073949;28;20021;-86
2023/12/02 08:56:04;;;;;;;20.50;7.18;;;;;;;-148.88;100.00;-17125.47;5072583;28;20391;-88
2023/12/02 08:58:29;;;;;;;20.88;8.60;;;;;;;-148.88;100.00;-17125.47;5073448;28;20387;-89
2023/12/02 09:00:55;;;;;;;23.02;8.43;;;;;;;-148.88;100.00;-17125.47;5072305;28;20017;-87
2023/12/02 09:03:20;;;;;;;25.40;8.57;;;;;;;-148.88;100.00;-17125.47;5074135;28;20078;-88
2023/12/02 09:05:46;;;;;;;24.23;8.45;;;;;;;-148.88;100.00;-17125.47;5073490;28;20032;-87
2023/12/02 09:08:11;;;;;;;30.85;8.60;;;;;;;-148.88;100.00;-17125.47;5072984;28;20090;-87
2023/12/02 09:10:37;;;;;;;23.77;7.88;;;;;;;-148.88;100.00;-17125.47;5073342;28;20081;-87
2023/12/02 09:13:35;;;;;;;24.10;9.45;;;;;;;-148.88;100.00;-17125.47;5073043;28;20474;-86
2023/12/02 09:16:00;;;;;;;24.70;9.18;;;;;;;-148.88;100.00;-17125.47;5072894;28;20036;-86
2023/12/02 09:18:32;;;;;;;26.45;8.38;;;;;;;-148.88;100.00;-17125.47;5073559;28;20021;-86
2023/12/02 09:20:58;;;;;;;22.58;8.25;;;;;;;-148.88;100.00;-17125.47;5073576;28;20028;-86
2023/12/02 09:23:23;;;;;;;23.27;8.75;;;;;;;-148.88;100.00;-17125.47;5073773;28;20536;-87
2023/12/02 09:25:51;;;;;;;23.85;8.98;;;;;;;-148.88;100.00;-17125.47;5074020;28;20032;-88
2023/12/02 09:28:27;;;;;;;28.02;9.85;;;;;;;-148.88;100.00;-17125.47;5073374;28;20025;-88
2023/12/02 09:30:55;;;;;;;24.40;8.30;;;;;;;-148.88;100.00;-17125.47;5073656;28;20032;-88
2023/12/02 09:33:21;;;;;;;27.38;8.18;;;;;;;-148.88;100.00;-17125.47;5076356;28;20036;-86
2023/12/02 09:35:52;;;;;;;21.52;8.10;;;;;;;-148.88;100.00;-17125.47;5076927;28;20024;-86
2023/12/02 09:38:18;;;;;;;21.55;7.72;;;;;;;-148.88;100.00;-17125.47;5076914;28;20024;-86
2023/12/02 09:40:52;;;;;;;27.27;9.20;;;;;;;-148.88;100.00;-17125.47;5077052;28;20046;-85
2023/12/02 09:43:27;;;;;;;26.00;8.05;;;;;;;-148.88;100.00;-17125.47;5077210;28;20062;-86
2023/12/02 09:46:09;;;;;;;25.42;9.38;;;;;;;-148.88;100.00;-17125.47;5077290;28;20039;-87
2023/12/02 09:48:47;;;;;;;22.23;9.10;;;;;;;-148.88;100.00;-17125.47;5076947;28;20040;-87
2023/12/02 09:51:43;;;;;;;24.13;8.73;;;;;;;-148.88;100.00;-17125.47;5077068;28;20086;-87
2023/12/02 09:54:22;;;;;;;24.70;8.27;;;;;;;-148.88;100.00;-17125.47;5076654;28;20028;-86
2023/12/02 09:56:55;;;;;;;25.58;10.23;;;;;;;-148.88;100.00;-17125.47;5077054;28;20085;-87
2023/12/02 09:59:42;;;;;;;19.45;7.63;;;;;;;-148.88;100.00;-17125.47;5086840;28;20029;-87
2023/12/02 10:02:38;;;;;;;24.30;8.98;;;;;;;-148.88;100.00;-17125.47;5077135;28;20394;-88
2023/12/02 10:05:10;;;;;;;20.48;7.60;;;;;;;-148.88;100.00;-17125.47;5076892;28;20021;-89
2023/12/02 10:07:56;;;;;;;26.65;9.38;;;;;;;-148.88;100.00;-17125.47;5076268;28;20118;-87
2023/12/02 10:10:22;;;;;;;26.85;9.50;;;;;;;-148.88;100.00;-17125.47;5075847;28;20032;-87
2023/12/02 10:13:19;;;;;;;28.13;8.80;;;;;;;-148.88;100.00;-17125.47;5076192;28;20020;-88
2023/12/02 10:15:47;;;;;;;25.00;9.02;;;;;;;-148.88;100.00;-17125.47;5074948;28;20033;-88
2023/12/02 10:18:14;;;;;;;31.67;9.52;;;;;;;-148.88;100.00;-17125.47;5076217;28;20024;-88
2023/12/02 10:20:41;;;;;;;31.45;10.05;;;;;;;-148.88;100.00;-17125.47;5076424;28;20024;-86
2023/12/02 10:23:26;;;;;;;24.48;9.77;;;;;;;-148.88;100.00;-17125.47;5076471;28;20016;-90
2023/12/02 10:26:07;;;;;;;32.95;9.80;;;;;;;-148.88;100.00;-17125.47;5076192;28;20428;-87
2023/12/02 10:28:36;;;;;;;30.33;9.20;;;;;;;-148.88;100.00;-17125.47;5076157;28;20438;-88
2023/12/02 10:31:05;;;;;;;31.55;10.68;;;;;;;-148.88;100.00;-17125.47;5075230;28;20032;-86
2023/12/02 10:33:52;;;;;;;28.95;8.98;;;;;;;-148.88;100.00;-17125.47;5074954;28;20020;-89
2023/12/02 10:36:20;;;;;;;30.20;9.90;;;;;;;-148.88;100.00;-17125.47;5075675;28;20025;-88
2023/12/02 10:38:54;;;;;;;30.85;8.50;;;;;;;-148.88;100.00;-17125.47;5076644;28;20059;-82
2023/12/02 10:41:36;;;;;;;22.90;9.00;;;;;;;-148.88;100.00;-17125.47;5076647;28;20493;-83
2023/12/02 10:44:07;;;;;;;25.23;9.88;;;;;;;-148.88;100.00;-17125.47;5075849;28;20056;-82
2023/12/02 10:46:34;;;;;;;34.45;9.65;;;;;;;-148.88;100.00;-17125.47;5076323;28;20016;-81
2023/12/02 10:49:01;;;;;;;28.60;11.02;;;;;;;-148.88;100.00;-17125.47;5076573;28;20024;-83
2023/12/02 10:51:27;;;;;;;28.75;10.38;;;;;;;-148.88;100.00;-17125.47;5076082;28;20028;-82
2023/12/02 10:53:58;;;;;;;27.42;9.20;;;;;;;-148.88;100.00;-17125.47;5075862;28;20024;-82